createdAt,value
2019-04-07T00:04:17.183Z,99699.41
2019-04-07T00:10:01.854Z,99697.19
2019-04-07T00:12:50.897Z,99696.73
2019-04-07T00:15:39.934Z,99691.56
2019-04-07T00:18:30.786Z,99692.42
2019-04-07T00:21:20.860Z,99693.25
2019-04-07T00:24:10.233Z,99691.53
2019-04-07T00:27:00.262Z,99693.69
2019-04-07T00:29:42.347Z,99696.27
2019-04-07T00:32:31.156Z,99695.84
2019-04-07T00:35:39.050Z,99696.67
2019-04-07T00:41:35.635Z,99687.55
2019-04-07T00:44:24.697Z,99692.33
2019-04-07T00:47:15.294Z,99688.91
2019-04-07T00:53:22.268Z,99679.92
2019-04-07T00:56:11.626Z,99677.73
2019-04-07T00:59:02.670Z,99678.56
2019-04-07T01:01:52.615Z,99674.29
2019-04-07T01:04:43.020Z,99673.36
2019-04-07T01:10:39.620Z,99667.33
2019-04-07T01:13:28.516Z,99669.03
2019-04-07T01:16:17.394Z,99665.55
2019-04-07T01:19:07.147Z,99662.13
2019-04-07T01:21:56.896Z,99659.95
2019-04-07T01:24:45.748Z,99655.23
2019-04-07T01:27:27.205Z,99659.09
2019-04-07T01:33:31.395Z,99685.27
2019-04-07T01:36:21.688Z,99686.56
2019-04-07T01:42:25.568Z,99684.88
2019-04-07T01:45:33.450Z,99685.44
2019-04-07T01:48:41.354Z,99682.08
2019-04-07T01:51:49.664Z,99680.87
2019-04-07T01:54:59.028Z,99682.13
2019-04-07T01:58:07.328Z,99675.98
2019-04-07T02:01:15.814Z,99678.48
2019-04-07T02:07:39.118Z,99674.03
2019-04-07T02:10:47.019Z,99673.57
2019-04-07T02:16:51.188Z,99672.24
2019-04-07T02:22:58.748Z,99667.83
2019-04-07T02:26:07.035Z,99672.56
2019-04-07T02:29:08.048Z,99676.84
2019-04-07T02:32:15.955Z,99672.09
2019-04-07T02:35:45.015Z,99680.71
2019-04-07T02:38:53.706Z,99671.59
2019-04-07T02:42:02.496Z,99671.91
2019-04-07T02:45:10.988Z,99673.16
2019-04-07T02:51:15.329Z,99672.30
2019-04-07T02:57:24.206Z,99669.64
2019-04-07T03:00:32.710Z,99678.68
2019-04-07T03:03:40.759Z,99676.56
2019-04-07T03:09:39.887Z,99684.48
2019-04-07T03:12:48.691Z,99687.56
2019-04-07T03:22:24.405Z,99696.05
2019-04-07T03:25:32.529Z,99693.95
2019-04-07T03:28:16.907Z,99694.88
2019-04-07T03:31:24.836Z,99697.53
2019-04-07T03:37:45.541Z,99705.35
2019-04-07T03:40:51.802Z,99703.25
2019-04-07T03:43:59.671Z,99710.70
2019-04-07T03:47:07.598Z,99705.07
2019-04-07T03:53:12.441Z,99712.77
2019-04-07T03:56:21.878Z,99708.00
2019-04-07T03:59:30.613Z,99707.56
2019-04-07T04:02:39.090Z,99709.23
2019-04-07T04:08:42.783Z,99716.59
2019-04-07T04:11:51.555Z,99719.14
2019-04-07T04:17:51.283Z,99718.65
2019-04-07T04:20:41.290Z,99725.08
2019-04-07T04:23:30.308Z,99725.05
2019-04-07T04:26:19.195Z,99727.17
2019-04-07T04:29:02.575Z,99720.23
2019-04-07T04:31:52.599Z,99717.22
2019-04-07T04:34:43.153Z,99724.12
2019-04-07T04:37:40.225Z,99723.61
2019-04-07T04:40:23.148Z,99726.52
2019-04-07T04:43:12.104Z,99724.25
2019-04-07T04:46:03.184Z,99729.77
2019-04-07T04:48:53.230Z,99727.57
2019-04-07T04:51:42.530Z,99726.63
2019-04-07T04:54:33.405Z,99727.84
2019-04-07T04:57:23.239Z,99733.47
2019-04-07T05:03:27.309Z,99737.34
2019-04-07T05:06:16.085Z,99742.52
2019-04-07T05:09:39.556Z,99742.95
2019-04-07T05:12:16.358Z,99747.59
2019-04-07T05:15:26.091Z,99751.04
2019-04-07T05:18:14.923Z,99749.31
2019-04-07T05:21:04.275Z,99753.23
2019-04-07T05:23:54.835Z,99749.83
2019-04-07T05:26:45.549Z,99750.74
2019-04-07T05:29:28.122Z,99748.59
2019-04-07T05:32:17.285Z,99754.70
2019-04-07T05:35:27.552Z,99750.44
2019-04-07T05:38:17.632Z,99752.76
2019-04-07T05:41:06.554Z,99744.77
2019-04-07T05:43:55.767Z,99750.44
2019-04-07T05:46:28.160Z,99750.11
2019-04-07T05:49:18.567Z,99755.02
2019-04-07T05:52:08.460Z,99755.61
2019-04-07T05:54:58.781Z,99762.19
2019-04-07T05:57:49.648Z,99767.13
2019-04-07T06:03:38.030Z,99780.94
2019-04-07T06:06:25.931Z,99776.22
2019-04-07T06:09:17.730Z,99774.14
2019-04-07T06:12:08.491Z,99778.11
2019-04-07T06:18:04.077Z,99779.78
2019-04-07T06:26:47.622Z,99781.25
2019-04-07T06:29:27.969Z,99778.92
2019-04-07T06:32:17.627Z,99785.30
2019-04-07T06:35:08.499Z,99785.66
2019-04-07T06:38:04.139Z,99786.09
2019-04-07T06:40:50.817Z,99794.87
2019-04-07T06:43:40.219Z,99793.55
2019-04-07T06:49:49.312Z,99792.69
2019-04-07T06:52:57.695Z,99794.36
2019-04-07T06:56:05.997Z,99793.88
2019-04-07T06:59:15.570Z,99797.33
2019-04-07T07:02:23.986Z,99790.50
2019-04-07T07:14:42.629Z,99804.48
2019-04-07T07:17:27.949Z,99810.72
2019-04-07T07:20:37.292Z,99808.44
2019-04-07T07:26:36.569Z,99810.87
2019-04-07T07:29:26.818Z,99807.11
2019-04-07T07:32:10.026Z,99811.42
2019-04-07T07:34:58.846Z,99809.73
2019-04-07T07:37:48.347Z,99805.52
2019-04-07T07:40:38.581Z,99808.72
2019-04-07T07:43:29.553Z,99806.81
2019-04-07T07:46:21.822Z,99809.56
2019-04-07T07:49:10.372Z,99813.27
2019-04-07T07:52:01.399Z,99810.48
2019-04-07T07:54:51.870Z,99809.00
2019-04-07T07:57:41.734Z,99799.30
2019-04-07T08:00:30.950Z,99808.36
2019-04-07T08:03:22.837Z,99802.28
2019-04-07T08:06:11.849Z,99808.81
2019-04-07T08:09:09.824Z,99801.59
2019-04-07T08:11:52.639Z,99806.61
2019-04-07T08:14:42.580Z,99810.09
2019-04-07T08:17:33.902Z,99808.75
2019-04-07T08:20:23.173Z,99815.75
2019-04-07T08:23:31.156Z,99813.06
2019-04-07T08:26:23.897Z,99815.33
2019-04-07T08:28:51.395Z,99818.95
2019-04-07T08:31:39.361Z,99819.85
2019-04-07T08:34:30.524Z,99823.26
2019-04-07T08:37:19.065Z,99817.54
2019-04-07T08:40:09.688Z,99820.78
2019-04-07T08:42:59.353Z,99815.17
2019-04-07T08:45:49.065Z,99825.03
2019-04-07T08:48:37.941Z,99817.61
2019-04-07T08:51:27.437Z,99820.46
2019-04-07T08:54:18.441Z,99815.78
2019-04-07T08:57:08.325Z,99818.84
2019-04-07T08:59:57.555Z,99815.91
2019-04-07T09:03:00.190Z,99816.49
2019-04-07T09:05:38.355Z,99818.52
2019-04-07T09:08:27.196Z,99813.91
2019-04-07T09:11:35.148Z,99825.42
2019-04-07T09:14:06.444Z,99820.02
2019-04-07T09:17:23.258Z,99823.20
2019-04-07T09:19:46.926Z,99831.94
2019-04-07T09:22:57.247Z,99825.64
2019-04-07T09:26:10.103Z,99832.80
2019-04-07T09:29:16.275Z,99827.35
2019-04-07T09:32:02.210Z,99829.08
2019-04-07T09:38:08.010Z,99827.42
2019-04-07T09:41:17.228Z,99825.89
2019-04-07T09:44:25.400Z,99827.89
2019-04-07T09:47:33.336Z,99834.00
2019-04-07T09:50:41.906Z,99827.80
2019-04-07T09:53:50.708Z,99830.20
2019-04-07T09:57:03.418Z,99830.33
2019-04-07T10:00:09.694Z,99835.67
2019-04-07T10:06:27.009Z,99830.27
2019-04-07T10:09:35.680Z,99830.19
2019-04-07T10:12:25.192Z,99828.08
2019-04-07T10:15:34.006Z,99829.21
2019-04-07T10:18:42.808Z,99833.52
2019-04-07T10:21:51.473Z,99837.59
2019-04-07T10:24:59.341Z,99831.60
2019-04-07T10:28:10.567Z,99829.03
2019-04-07T10:31:19.510Z,99824.60
2019-04-07T10:34:27.376Z,99836.80
2019-04-07T10:37:36.133Z,99831.67
2019-04-07T10:40:44.074Z,99826.88
2019-04-07T10:43:52.595Z,99831.90
2019-04-07T10:47:00.497Z,99826.39
2019-04-07T10:49:58.613Z,99827.81
2019-04-07T10:52:58.729Z,99822.00
2019-04-07T10:56:06.900Z,99815.39
2019-04-07T10:59:14.814Z,99825.55
2019-04-07T11:02:22.805Z,99822.91
2019-04-07T11:08:26.555Z,99823.17
2019-04-07T11:11:34.447Z,99816.12
2019-04-07T11:14:43.005Z,99821.66
2019-04-07T11:17:51.563Z,99827.11
2019-04-07T11:21:20.335Z,99819.32
2019-04-07T11:24:31.082Z,99815.78
2019-04-07T11:27:37.950Z,99828.55
2019-04-07T11:30:45.852Z,99823.52
2019-04-07T11:33:47.036Z,99820.20
2019-04-07T11:42:59.793Z,99811.70
2019-04-07T11:46:07.761Z,99812.28
2019-04-07T11:52:06.024Z,99804.97
2019-04-07T11:55:16.182Z,99809.45
2019-04-07T11:58:31.414Z,99801.10
2019-04-07T12:01:33.912Z,99812.36
2019-04-07T12:04:22.578Z,99805.05
2019-04-07T12:07:30.512Z,99808.29
2019-04-07T12:10:38.742Z,99815.45
2019-04-07T12:13:46.787Z,99801.96
2019-04-07T12:20:04.264Z,99806.23
2019-04-07T12:26:08.630Z,99814.47
2019-04-07T12:29:16.767Z,99804.83
2019-04-07T12:32:24.950Z,99807.91
2019-04-07T12:39:01.792Z,99805.02
2019-04-07T12:42:09.680Z,99814.35
2019-04-07T12:45:18.027Z,99812.91
2019-04-07T12:48:28.961Z,99804.39
2019-04-07T12:51:35.556Z,99797.94
2019-04-07T12:54:43.728Z,99797.98
2019-04-07T12:57:35.466Z,99800.67
2019-04-07T13:00:54.397Z,99794.61
2019-04-07T13:07:01.297Z,99790.36
2019-04-07T13:16:05.546Z,99792.01
2019-04-07T13:21:50.065Z,99779.19
2019-04-07T13:27:54.207Z,99783.62
2019-04-07T13:30:43.340Z,99783.09
2019-04-07T13:33:29.122Z,99787.41
2019-04-07T13:36:17.156Z,99786.80
2019-04-07T13:39:47.196Z,99787.40
2019-04-07T13:42:58.058Z,99785.88
2019-04-07T13:52:30.036Z,99784.20
2019-04-07T13:58:15.046Z,99783.80
2019-04-07T14:01:21.071Z,99787.44
2019-04-07T14:04:15.664Z,99786.17
2019-04-07T14:10:20.231Z,99779.02
2019-04-07T14:13:29.962Z,99780.98
2019-04-07T14:19:47.642Z,99772.68
2019-04-07T14:22:55.649Z,99776.61
2019-04-07T14:26:03.622Z,99774.48
2019-04-07T14:29:11.992Z,99779.05
2019-04-07T14:32:19.905Z,99772.22
2019-04-07T14:47:38.799Z,99772.59
2019-04-07T14:50:47.342Z,99771.52
2019-04-07T14:53:55.446Z,99775.94
2019-04-07T14:56:44.037Z,99774.80
2019-04-07T14:59:54.212Z,99774.13
2019-04-07T15:02:23.269Z,99779.24
2019-04-07T15:05:32.697Z,99777.94
2019-04-07T15:08:40.952Z,99780.28
2019-04-07T15:11:48.829Z,99783.31
2019-04-07T15:14:37.665Z,99781.73
2019-04-07T15:17:27.162Z,99780.43
2019-04-07T15:20:17.541Z,99786.73
2019-04-07T15:23:08.606Z,99779.70
2019-04-07T15:25:59.036Z,99774.64
2019-04-07T15:28:49.317Z,99775.89
2019-04-07T15:31:38.603Z,99780.42
2019-04-07T15:34:29.646Z,99777.80
2019-04-07T15:37:22.615Z,99786.52
2019-04-07T15:40:10.909Z,99779.16
2019-04-07T15:43:04.307Z,99782.42
2019-04-07T15:45:52.177Z,99779.63
2019-04-07T15:48:41.997Z,99781.09
2019-04-07T15:51:34.148Z,99786.96
2019-04-07T15:54:23.968Z,99794.87
2019-04-07T15:57:12.070Z,99785.38
2019-04-07T16:00:03.695Z,99785.38
2019-04-07T16:02:53.313Z,99793.87
2019-04-07T16:05:44.586Z,99795.97
2019-04-07T16:08:32.671Z,99788.92
2019-04-07T16:11:24.428Z,99800.64
2019-04-07T16:14:13.608Z,99800.27
2019-04-07T16:17:05.405Z,99794.16
2019-04-07T16:19:54.425Z,99797.54
2019-04-07T16:22:47.043Z,99805.14
2019-04-07T16:25:34.910Z,99804.27
2019-04-07T16:28:23.763Z,99805.45
2019-04-07T16:31:13.268Z,99805.58
2019-04-07T16:33:56.169Z,99809.60
2019-04-07T16:36:44.993Z,99808.35
2019-04-07T16:39:34.948Z,99810.06
2019-04-07T16:42:25.268Z,99808.61
2019-04-07T16:45:17.783Z,99809.41
2019-04-07T16:48:06.696Z,99812.94
2019-04-07T16:50:57.278Z,99820.59
2019-04-07T16:53:47.808Z,99824.21
2019-04-07T16:56:58.352Z,99837.05
2019-04-07T16:59:28.360Z,99833.94
2019-04-07T17:02:18.262Z,99837.91
2019-04-07T17:05:07.970Z,99840.86
2019-04-07T17:07:57.290Z,99836.75
2019-04-07T17:10:47.383Z,99845.18
2019-04-07T17:13:41.212Z,99843.75
2019-04-07T17:16:26.902Z,99846.49
2019-04-07T17:19:16.281Z,99842.28
2019-04-07T17:22:07.198Z,99846.79
2019-04-07T17:25:00.341Z,99848.81
2019-04-07T17:28:03.406Z,99843.28
2019-04-07T17:30:49.639Z,99848.45
2019-04-07T17:33:36.058Z,99847.90
2019-04-07T17:36:24.005Z,99852.90
2019-04-07T17:39:36.927Z,99858.30
2019-04-07T17:42:26.236Z,99862.44
2019-04-07T17:48:50.377Z,99871.92
2019-04-07T17:51:36.339Z,99875.12
2019-04-07T17:54:42.917Z,99875.02
2019-04-07T17:57:50.766Z,99875.05
2019-04-07T18:00:59.676Z,99877.92
2019-04-07T18:04:09.320Z,99878.08
2019-04-07T18:07:17.961Z,99882.69
2019-04-07T18:10:26.709Z,99882.30
2019-04-07T18:13:44.968Z,99886.14
2019-04-07T18:19:41.201Z,99891.36
2019-04-07T18:25:45.787Z,99907.47
2019-04-07T18:28:30.517Z,99903.76
2019-04-07T18:31:04.973Z,99911.53
2019-04-07T18:33:50.753Z,99910.31
2019-04-07T18:36:21.400Z,99915.53
2019-04-07T18:38:51.536Z,99923.93
2019-04-07T18:41:38.656Z,99927.85
2019-04-07T18:44:28.344Z,99932.19
2019-04-07T18:47:12.198Z,99940.12
2019-04-07T18:50:03.661Z,99941.39
2019-04-07T18:52:33.596Z,99944.25
2019-04-07T18:55:09.878Z,99952.85
2019-04-07T18:57:52.118Z,99953.89
2019-04-07T19:00:23.323Z,99956.69
2019-04-07T19:02:53.467Z,99957.71
2019-04-07T19:05:33.400Z,99964.83
2019-04-07T19:08:20.265Z,99959.23
2019-04-07T19:11:06.943Z,99966.26
2019-04-07T19:13:43.153Z,99978.18
2019-04-07T19:16:19.087Z,99974.48
2019-04-07T19:18:47.369Z,99977.25
2019-04-07T19:21:31.506Z,99973.95
2019-04-07T19:24:10.665Z,99982.75
2019-04-07T19:27:11.992Z,99984.66
2019-04-07T19:29:39.022Z,99980.90
2019-04-07T19:32:17.955Z,99984.91
2019-04-07T19:34:49.327Z,99985.37
2019-04-07T19:37:22.895Z,99990.24
2019-04-07T19:39:56.475Z,99989.48
2019-04-07T19:42:27.384Z,99988.29
2019-04-07T19:45:13.441Z,99989.23
2019-04-07T19:48:04.006Z,99992.80
2019-04-07T19:50:39.145Z,99990.75
2019-04-07T19:53:16.095Z,99989.04
2019-04-07T19:56:03.089Z,99991.73
2019-04-07T19:58:47.027Z,99986.17
2019-04-07T20:01:34.226Z,99995.78
2019-04-07T20:04:11.051Z,99992.80
2019-04-07T20:06:46.868Z,99995.05
2019-04-07T20:09:19.358Z,99994.65
2019-04-07T20:11:51.560Z,99994.69
2019-04-07T20:14:46.595Z,99996.91
2019-04-07T20:17:19.730Z,100002.14
2019-04-07T20:19:47.880Z,99997.43
2019-04-07T20:22:33.898Z,100003.09
2019-04-07T20:25:20.004Z,100002.68
2019-04-07T20:27:59.466Z,100007.05
2019-04-07T20:30:36.397Z,100008.36
2019-04-07T20:33:16.827Z,100010.50
2019-04-07T20:36:03.742Z,100011.80
2019-04-07T20:38:51.173Z,100017.84
2019-04-07T20:41:31.546Z,100014.80
2019-04-07T20:44:03.893Z,100010.91
2019-04-07T20:46:36.094Z,100014.41
2019-04-07T20:49:08.815Z,100009.66
2019-04-07T20:51:41.041Z,100013.58
2019-04-07T20:54:12.279Z,100011.02
2019-04-07T20:56:56.181Z,100011.02
2019-04-07T20:59:29.007Z,100011.44
2019-04-07T21:02:09.445Z,100011.91
2019-04-07T21:04:53.766Z,100011.05
2019-04-07T21:07:36.722Z,100018.44
2019-04-07T21:10:10.926Z,100011.05
2019-04-07T21:12:54.808Z,100012.38
2019-04-07T21:15:28.229Z,100011.05
2019-04-07T21:17:58.286Z,100017.13
2019-04-07T21:20:41.992Z,100017.13
2019-04-07T21:23:28.055Z,100014.09
2019-04-07T21:26:05.760Z,100015.38
2019-04-07T21:28:42.819Z,100016.25
2019-04-07T21:31:18.643Z,100019.70
2019-04-07T21:34:02.412Z,100019.70
2019-04-07T21:36:32.214Z,100019.27
2019-04-07T21:39:15.093Z,100024.49
2019-04-07T21:41:58.378Z,100028.83
2019-04-07T21:44:35.884Z,100027.97
2019-04-07T21:47:16.152Z,100030.13
2019-04-07T21:49:55.891Z,100026.67
2019-04-07T21:52:27.074Z,100039.66
2019-04-07T21:55:14.885Z,100038.78
2019-04-07T21:58:03.961Z,100034.87
2019-04-07T22:00:51.084Z,100034.00
2019-04-07T22:03:38.276Z,100038.73
2019-04-07T22:06:16.575Z,100046.98
2019-04-07T22:09:02.491Z,100040.87
2019-04-07T22:11:32.601Z,100042.59
2019-04-07T22:14:04.113Z,100043.84
2019-04-07T22:16:34.238Z,100051.20
2019-04-07T22:19:04.224Z,100044.24
2019-04-07T22:21:34.153Z,100047.69
2019-04-07T22:24:04.817Z,100050.28
2019-04-07T22:26:34.968Z,100046.35
2019-04-07T22:29:05.569Z,100048.06
2019-04-07T22:31:36.791Z,100045.45
2019-04-07T22:34:06.910Z,100050.20
2019-04-07T22:36:36.451Z,100050.63
2019-04-07T22:39:07.785Z,100054.48
2019-04-07T22:41:41.231Z,100047.95
2019-04-07T22:44:09.217Z,100049.69
2019-04-07T22:46:39.599Z,100051.33
2019-04-07T22:49:09.316Z,100055.64
2019-04-07T22:51:43.007Z,100058.64
2019-04-07T22:54:10.072Z,100053.41
2019-04-07T22:56:39.936Z,100057.24
2019-04-07T22:59:11.601Z,100052.46
2019-04-07T23:01:41.641Z,100051.55
2019-04-07T23:04:11.949Z,100052.42
2019-04-07T23:06:42.479Z,100054.12
2019-04-07T23:09:12.068Z,100056.25
2019-04-07T23:11:41.571Z,100056.22
2019-04-07T23:14:11.537Z,100057.03
2019-04-07T23:16:41.085Z,100061.34
2019-04-07T23:19:10.951Z,100060.05
2019-04-07T23:21:40.559Z,100062.21
2019-04-07T23:24:10.860Z,100065.64
2019-04-07T23:26:40.519Z,100058.70
2019-04-07T23:29:10.105Z,100061.22
2019-04-07T23:31:40.472Z,100058.20
2019-04-07T23:34:10.559Z,100064.22
2019-04-07T23:36:40.161Z,100068.47
2019-04-07T23:39:10.012Z,100069.37
2019-04-07T23:41:39.754Z,100068.47
2019-04-07T23:44:09.471Z,100067.57
2019-04-07T23:46:39.348Z,100068.36
2019-04-07T23:49:09.900Z,100072.69
2019-04-07T23:51:39.492Z,100082.14
2019-04-07T23:54:14.263Z,100081.32
2019-04-07T23:56:45.810Z,100087.01
2019-04-07T23:59:15.379Z,100087.87
